Lower Stanley, Idaho
Current Conditions -  °F | °C
As of 2:55 PM on Thursday 23 Oct 2014 (Local Time) from KLLJ Reporting Station
Overcast Overcast  
Wind Chill: 61°   Ceiling: 10000
Heat Index: 61°   Visibility: 10mi
Dew Point: 32°   Wind: 5mph
Humidity: 34%   Direction: NA
Pressure: 29.98"   Gusts: NA
Location:  44.3379°N, 114.824°W
Report Text: KLLJ 232055Z AUTO VRB04KT 10SM FEW070 OVC100 16/00 A2998 RMK AO2 SLP118 T01610000 56023
Loading
Personal Weather Stations






























Interactive Weather Map
Tropical Storm Tracking
New forecast layout! Learn more

10-Day Weather Forecast

Advertisements
Track Severe Weather on mobile